createdAt,value
2022-12-23T00:00:01.481Z,49.34
2022-12-23T00:01:01.510Z,49.36
2022-12-23T00:02:01.484Z,49.48
2022-12-23T00:03:01.616Z,49.49
2022-12-23T00:04:01.479Z,49.59
2022-12-23T00:05:01.491Z,49.69
2022-12-23T00:06:01.416Z,49.57
2022-12-23T00:07:01.478Z,49.56
2022-12-23T00:08:01.434Z,49.39
2022-12-23T00:09:01.492Z,49.46
2022-12-23T00:10:01.464Z,49.41
2022-12-23T00:11:01.451Z,49.56
2022-12-23T00:12:01.452Z,49.60
2022-12-23T00:13:01.471Z,49.73
2022-12-23T00:14:01.444Z,49.78
2022-12-23T00:15:01.514Z,49.83
2022-12-23T00:16:01.497Z,49.87
2022-12-23T00:17:01.548Z,49.93
2022-12-23T00:18:01.443Z,49.93
2022-12-23T00:19:01.451Z,49.98
2022-12-23T00:20:01.452Z,50.08
2022-12-23T00:21:06.749Z,50.13
2022-12-23T00:22:02.557Z,50.12
2022-12-23T00:23:01.451Z,50.09
2022-12-23T00:24:01.496Z,50.16
2022-12-23T00:25:01.481Z,50.13
2022-12-23T00:26:01.457Z,50.17
2022-12-23T00:27:01.436Z,50.23
2022-12-23T00:28:01.588Z,50.26
2022-12-23T00:29:01.419Z,50.25
2022-12-23T00:30:01.564Z,50.27
2022-12-23T00:31:01.437Z,50.30
2022-12-23T00:32:01.533Z,50.32
2022-12-23T00:33:01.442Z,50.33
2022-12-23T00:34:01.469Z,50.31
2022-12-23T00:35:01.433Z,50.35
2022-12-23T00:36:01.555Z,50.36
2022-12-23T00:37:01.479Z,50.38
2022-12-23T00:38:01.488Z,50.39
2022-12-23T00:39:01.487Z,51.41
2022-12-23T00:40:06.548Z,50.56
2022-12-23T00:41:02.460Z,50.47
2022-12-23T00:42:01.471Z,50.49
2022-12-23T00:43:01.493Z,50.41
2022-12-23T00:44:01.439Z,50.58
2022-12-23T00:45:01.472Z,50.53
2022-12-23T00:46:01.523Z,50.42
2022-12-23T00:47:01.453Z,50.47
2022-12-23T00:48:01.410Z,50.49
2022-12-23T00:49:01.455Z,50.64
2022-12-23T00:50:01.440Z,50.42
2022-12-23T00:51:01.442Z,50.34
2022-12-23T00:52:01.421Z,50.28
2022-12-23T00:53:01.417Z,50.26
2022-12-23T00:54:01.395Z,50.22
2022-12-23T00:55:01.510Z,50.08
2022-12-23T00:56:01.375Z,50.06
2022-12-23T00:57:01.402Z,50.19
2022-12-23T00:58:01.385Z,50.04
2022-12-23T00:59:01.397Z,49.92
2022-12-23T01:00:01.436Z,49.87
2022-12-23T01:01:01.360Z,49.99
2022-12-23T01:02:01.424Z,49.89
2022-12-23T01:03:01.415Z,49.87
2022-12-23T01:04:01.306Z,49.89
2022-12-23T01:05:01.295Z,49.84
2022-12-23T01:06:01.252Z,49.75
2022-12-23T01:07:01.243Z,49.68
2022-12-23T01:08:01.258Z,49.64
2022-12-23T01:09:01.279Z,49.57
2022-12-23T01:10:01.199Z,49.52
2022-12-23T01:11:01.224Z,49.54
2022-12-23T01:12:01.192Z,49.46
2022-12-23T01:13:01.220Z,49.42
2022-12-23T01:14:01.173Z,49.33
2022-12-23T01:15:01.165Z,49.28
2022-12-23T01:16:01.162Z,53.02
2022-12-23T01:17:01.216Z,49.13
2022-12-23T01:18:01.115Z,48.97
2022-12-23T01:19:01.085Z,48.92
2022-12-23T01:20:01.075Z,48.99
2022-12-23T01:21:01.068Z,48.97
2022-12-23T01:22:01.031Z,48.97
2022-12-23T01:23:01.023Z,49.04
2022-12-23T01:24:00.991Z,49.04
2022-12-23T01:25:01.015Z,49.01
2022-12-23T01:26:00.963Z,49.07
2022-12-23T01:27:00.948Z,49.09
2022-12-23T01:28:00.997Z,49.11
2022-12-23T01:29:01.075Z,49.11
2022-12-23T01:30:00.866Z,49.14
2022-12-23T01:31:00.870Z,49.15
2022-12-23T01:32:00.904Z,49.19
2022-12-23T01:33:00.803Z,49.19
2022-12-23T01:34:00.891Z,49.29
2022-12-23T01:35:00.790Z,49.46
2022-12-23T01:36:00.787Z,50.48
2022-12-23T01:37:00.785Z,53.01
2022-12-23T01:38:00.754Z,54.15
2022-12-23T01:39:00.731Z,53.99
2022-12-23T01:40:00.716Z,52.55
2022-12-23T01:41:00.706Z,52.31
2022-12-23T01:42:00.672Z,52.42
2022-12-23T01:43:00.672Z,52.13
2022-12-23T01:44:00.649Z,52.40
2022-12-23T01:45:00.675Z,52.15
2022-12-23T01:46:00.636Z,52.38
2022-12-23T01:47:00.626Z,52.50
2022-12-23T01:48:00.577Z,52.53
2022-12-23T01:49:00.579Z,52.65
2022-12-23T01:50:00.554Z,52.87
2022-12-23T01:51:00.541Z,53.03
2022-12-23T01:52:00.488Z,52.54
2022-12-23T01:53:06.894Z,52.66
2022-12-23T01:54:01.532Z,52.52
2022-12-23T01:55:00.462Z,52.18
2022-12-23T01:56:00.492Z,52.69
2022-12-23T01:57:00.432Z,52.83
2022-12-23T01:58:00.483Z,53.86
2022-12-23T01:59:00.430Z,53.33
2022-12-23T02:00:00.430Z,53.23
2022-12-23T02:01:00.422Z,52.69
2022-12-23T02:02:00.694Z,53.13
2022-12-23T02:03:00.481Z,53.04
2022-12-23T02:04:00.415Z,52.82
2022-12-23T02:05:00.311Z,52.75
2022-12-23T02:06:00.318Z,53.39
2022-12-23T02:07:00.324Z,53.37
2022-12-23T02:08:00.349Z,53.45
2022-12-23T02:09:00.280Z,53.74
2022-12-23T02:10:00.300Z,53.38
2022-12-23T02:11:00.249Z,53.63
2022-12-23T02:12:00.285Z,53.54
2022-12-23T02:13:00.227Z,53.63
2022-12-23T02:14:00.246Z,53.57
2022-12-23T02:15:00.196Z,53.48
2022-12-23T02:16:00.227Z,53.48
2022-12-23T02:17:00.273Z,53.23
2022-12-23T02:18:00.219Z,53.58
2022-12-23T02:19:00.161Z,53.43
2022-12-23T02:20:00.176Z,53.48
2022-12-23T02:21:00.145Z,53.53
2022-12-23T02:22:00.174Z,53.35
2022-12-23T02:23:00.128Z,53.42
2022-12-23T02:24:00.183Z,53.44
2022-12-23T02:25:00.120Z,53.39
2022-12-23T02:26:00.133Z,53.48
2022-12-23T02:27:00.119Z,53.51
2022-12-23T02:28:00.128Z,53.45
2022-12-23T02:29:00.118Z,53.41
2022-12-23T02:30:00.146Z,53.47
2022-12-23T02:31:00.139Z,53.46
2022-12-23T02:32:00.131Z,53.50
2022-12-23T02:33:00.092Z,53.50
2022-12-23T02:34:00.065Z,53.53
2022-12-23T02:35:00.007Z,53.51
2022-12-23T02:36:00.061Z,53.51
2022-12-23T02:37:00.006Z,53.56
2022-12-23T02:38:00.044Z,53.56
2022-12-23T02:38:59.993Z,53.52
2022-12-23T02:40:00.019Z,53.48
2022-12-23T02:40:59.974Z,53.65
2022-12-23T02:42:00.020Z,53.65
2022-12-23T02:43:00.002Z,53.87
2022-12-23T02:44:00.006Z,53.62
2022-12-23T02:44:59.939Z,53.65
2022-12-23T02:45:59.983Z,53.61
2022-12-23T02:46:59.962Z,53.53
2022-12-23T02:47:59.977Z,53.53
2022-12-23T02:48:59.912Z,53.52
2022-12-23T02:49:59.972Z,53.57
2022-12-23T02:50:59.924Z,53.58
2022-12-23T02:51:59.939Z,53.67
2022-12-23T02:52:59.900Z,53.71
2022-12-23T02:53:59.928Z,53.73
2022-12-23T02:54:59.882Z,53.77
2022-12-23T02:55:59.907Z,53.71
2022-12-23T02:56:59.860Z,53.83
2022-12-23T02:57:59.884Z,53.78
2022-12-23T02:58:59.840Z,53.79
2022-12-23T02:59:59.875Z,53.74
2022-12-23T03:00:59.824Z,53.74
2022-12-23T03:02:00.019Z,53.76
2022-12-23T03:02:59.959Z,53.74
2022-12-23T03:03:59.938Z,53.78
2022-12-23T03:05:01.122Z,53.83
2022-12-23T03:05:59.855Z,53.87
2022-12-23T03:07:02.961Z,53.88
2022-12-23T03:08:00.878Z,53.82
2022-12-23T03:08:59.808Z,53.83
2022-12-23T03:09:59.855Z,53.86
2022-12-23T03:10:59.786Z,53.84
2022-12-23T03:11:59.837Z,53.86
2022-12-23T03:12:59.818Z,53.91
2022-12-23T03:13:59.845Z,53.95
2022-12-23T03:14:59.868Z,53.93
2022-12-23T03:15:59.909Z,53.92
2022-12-23T03:16:59.779Z,53.92
2022-12-23T03:17:59.820Z,53.94
2022-12-23T03:18:59.750Z,53.98
2022-12-23T03:19:59.824Z,53.93
2022-12-23T03:20:59.762Z,53.96
2022-12-23T03:21:59.781Z,53.92
2022-12-23T03:22:59.739Z,53.93
2022-12-23T03:23:59.793Z,53.93
2022-12-23T03:24:59.751Z,53.94
2022-12-23T03:25:59.755Z,53.99
2022-12-23T03:26:59.734Z,53.99
2022-12-23T03:27:59.779Z,53.95
2022-12-23T03:28:59.744Z,53.97
2022-12-23T03:29:59.740Z,53.95
2022-12-23T03:30:59.745Z,53.93
2022-12-23T03:31:59.775Z,53.97
2022-12-23T03:32:59.704Z,53.96
2022-12-23T03:33:59.727Z,53.96
2022-12-23T03:34:59.688Z,53.94
2022-12-23T03:35:59.742Z,53.97
2022-12-23T03:36:59.729Z,53.96
2022-12-23T03:37:59.729Z,54.04
2022-12-23T03:38:59.690Z,54.02
2022-12-23T03:39:59.745Z,53.90
2022-12-23T03:40:59.708Z,53.95
2022-12-23T03:41:59.754Z,53.93
2022-12-23T03:42:59.722Z,54.04
2022-12-23T03:43:59.747Z,54.00
2022-12-23T03:45:36.349Z,54.00
2022-12-23T03:46:00.798Z,53.98
2022-12-23T03:46:59.732Z,53.95
2022-12-23T03:47:59.718Z,53.91
2022-12-23T03:48:59.692Z,53.89
2022-12-23T03:49:59.761Z,53.92
2022-12-23T03:50:59.713Z,53.90
2022-12-23T03:51:59.734Z,54.02
2022-12-23T03:52:59.730Z,53.95
2022-12-23T03:53:59.737Z,53.98
2022-12-23T03:54:59.732Z,53.94
2022-12-23T03:55:59.724Z,53.90
2022-12-23T03:56:59.691Z,53.94
2022-12-23T03:57:59.763Z,54.00
2022-12-23T03:58:59.704Z,53.92
2022-12-23T03:59:59.750Z,53.98
2022-12-23T04:00:59.691Z,53.91
2022-12-23T04:01:59.832Z,54.03
2022-12-23T04:02:59.792Z,53.93
2022-12-23T04:03:59.728Z,54.00
2022-12-23T04:04:59.690Z,53.91
2022-12-23T04:05:59.736Z,54.01
2022-12-23T04:06:59.684Z,53.94
2022-12-23T04:07:59.699Z,53.99
2022-12-23T04:08:59.673Z,54.01
2022-12-23T04:09:59.729Z,54.02
2022-12-23T04:10:59.669Z,53.94
2022-12-23T04:11:59.735Z,54.00
2022-12-23T04:12:59.699Z,54.04
2022-12-23T04:13:59.716Z,54.04
2022-12-23T04:14:59.671Z,54.04
2022-12-23T04:15:59.755Z,54.06
2022-12-23T04:16:59.670Z,53.99
2022-12-23T04:17:59.701Z,53.95
2022-12-23T04:18:59.687Z,54.00
2022-12-23T04:19:59.710Z,54.02
2022-12-23T04:20:59.669Z,53.96
2022-12-23T04:21:59.715Z,53.92
2022-12-23T04:22:59.675Z,53.96
2022-12-23T04:23:59.725Z,53.96
2022-12-23T04:24:59.672Z,53.86
2022-12-23T04:25:59.737Z,53.94
2022-12-23T04:26:59.686Z,53.95
2022-12-23T04:27:59.734Z,54.02
2022-12-23T04:28:59.684Z,53.95
2022-12-23T04:29:59.732Z,53.92
2022-12-23T04:30:59.724Z,53.92
2022-12-23T04:31:59.812Z,53.96
2022-12-23T04:32:59.704Z,53.98
2022-12-23T04:33:59.735Z,53.98
2022-12-23T04:34:59.688Z,53.98
2022-12-23T04:35:59.718Z,53.96
2022-12-23T04:36:59.680Z,53.90
2022-12-23T04:37:59.698Z,53.96
2022-12-23T04:38:59.625Z,54.02
2022-12-23T04:39:59.718Z,53.98
2022-12-23T04:40:59.656Z,53.99
2022-12-23T04:41:59.662Z,53.95
2022-12-23T04:42:59.648Z,54.00
2022-12-23T04:43:59.655Z,53.95
2022-12-23T04:44:59.616Z,53.94
2022-12-23T04:45:59.650Z,54.01
2022-12-23T04:46:59.676Z,54.03
2022-12-23T04:47:59.661Z,53.93
2022-12-23T04:48:59.654Z,53.98
2022-12-23T04:49:59.663Z,53.99
2022-12-23T04:50:59.665Z,53.94
2022-12-23T04:51:59.669Z,53.94
2022-12-23T04:52:59.627Z,53.96
2022-12-23T04:53:59.683Z,53.98
2022-12-23T04:54:59.667Z,53.93
2022-12-23T04:55:59.642Z,53.88
2022-12-23T04:56:59.628Z,53.93
2022-12-23T04:57:59.658Z,53.89
2022-12-23T04:58:59.664Z,53.95
2022-12-23T04:59:59.661Z,53.94
2022-12-23T05:00:59.661Z,53.90
2022-12-23T05:01:59.912Z,53.89
2022-12-23T05:02:59.745Z,53.91
2022-12-23T05:03:59.648Z,53.90
2022-12-23T05:04:59.660Z,53.86
2022-12-23T05:05:59.655Z,53.90
2022-12-23T05:06:59.661Z,53.87
2022-12-23T05:07:59.634Z,53.83
2022-12-23T05:08:59.686Z,53.84
2022-12-23T05:09:59.658Z,53.86
2022-12-23T05:10:59.661Z,53.84
2022-12-23T05:11:59.625Z,53.79
2022-12-23T05:12:59.635Z,53.83
2022-12-23T05:13:59.668Z,53.83
2022-12-23T05:14:59.624Z,53.77
2022-12-23T05:15:59.712Z,53.80
2022-12-23T05:17:05.271Z,53.81
2022-12-23T05:18:00.627Z,53.83
2022-12-23T05:18:59.591Z,53.79
2022-12-23T05:19:59.620Z,53.79
2022-12-23T05:20:59.612Z,53.79
2022-12-23T05:21:59.604Z,53.82
2022-12-23T05:22:59.632Z,53.78
2022-12-23T05:23:59.632Z,53.75
2022-12-23T05:24:59.639Z,53.84
2022-12-23T05:25:59.604Z,53.85
2022-12-23T05:27:00.553Z,53.74
2022-12-23T05:27:59.655Z,53.84
2022-12-23T05:28:59.616Z,53.78
2022-12-23T05:29:59.616Z,53.75
2022-12-23T05:30:59.616Z,53.79
2022-12-23T05:31:59.747Z,53.77
2022-12-23T05:32:59.712Z,53.75
2022-12-23T05:34:06.098Z,53.77
2022-12-23T05:35:00.654Z,53.76
2022-12-23T05:35:59.632Z,53.73
2022-12-23T05:36:59.656Z,53.75
2022-12-23T05:37:59.620Z,53.74
2022-12-23T05:38:59.630Z,53.73
2022-12-23T05:39:59.634Z,53.69
2022-12-23T05:40:59.645Z,53.70
2022-12-23T05:41:59.607Z,53.78
2022-12-23T05:42:59.650Z,53.74
2022-12-23T05:43:59.630Z,53.72
2022-12-23T05:44:59.658Z,53.75
2022-12-23T05:45:59.695Z,53.71
2022-12-23T05:46:59.633Z,53.70
2022-12-23T05:47:59.609Z,53.74
2022-12-23T05:48:59.621Z,53.59
2022-12-23T05:49:59.680Z,53.74
2022-12-23T05:50:59.650Z,53.69
2022-12-23T05:51:59.597Z,53.53
2022-12-23T05:52:59.617Z,53.62
2022-12-23T05:53:59.620Z,53.63
2022-12-23T05:54:59.633Z,53.69
2022-12-23T05:55:59.601Z,53.69
2022-12-23T05:56:59.621Z,53.59
2022-12-23T05:57:59.613Z,53.52
2022-12-23T05:58:59.628Z,53.43
2022-12-23T05:59:59.588Z,53.38
2022-12-23T06:00:59.639Z,53.28
2022-12-23T06:01:59.865Z,53.25
2022-12-23T06:02:59.935Z,53.11
2022-12-23T06:03:59.772Z,53.41
2022-12-23T06:04:59.612Z,54.45
2022-12-23T06:05:59.595Z,54.57
2022-12-23T06:06:59.617Z,54.05
2022-12-23T06:07:59.544Z,53.91
2022-12-23T06:09:00.358Z,53.80
2022-12-23T06:09:59.550Z,53.67
2022-12-23T06:10:59.588Z,53.56
2022-12-23T06:11:59.527Z,53.41
2022-12-23T06:12:59.579Z,53.31
2022-12-23T06:13:59.550Z,53.23
2022-12-23T06:14:59.553Z,53.09
2022-12-23T06:15:59.496Z,53.10
2022-12-23T06:16:59.719Z,53.19
2022-12-23T06:17:59.504Z,53.08
2022-12-23T06:18:59.536Z,52.95
2022-12-23T06:19:59.505Z,52.97
2022-12-23T06:20:59.535Z,52.87
2022-12-23T06:21:59.471Z,53.01
2022-12-23T06:22:59.497Z,52.83
2022-12-23T06:23:59.436Z,52.82
2022-12-23T06:24:59.484Z,52.76
2022-12-23T06:25:59.427Z,52.72
2022-12-23T06:26:59.434Z,52.67
2022-12-23T06:27:59.420Z,52.66
2022-12-23T06:28:59.452Z,52.60
2022-12-23T06:29:59.369Z,52.58
2022-12-23T06:30:59.402Z,52.50
2022-12-23T06:31:59.436Z,52.50
2022-12-23T06:32:59.358Z,52.44
2022-12-23T06:33:59.320Z,52.38
2022-12-23T06:34:59.329Z,52.38
2022-12-23T06:35:59.278Z,52.35
2022-12-23T06:36:59.295Z,52.34
2022-12-23T06:37:59.255Z,52.37
2022-12-23T06:38:59.238Z,52.33
2022-12-23T06:39:59.204Z,52.31
2022-12-23T06:40:59.229Z,52.31
2022-12-23T06:41:59.183Z,52.30
2022-12-23T06:42:59.199Z,52.31
2022-12-23T06:43:59.164Z,52.31
2022-12-23T06:44:59.171Z,52.31
2022-12-23T06:45:59.176Z,52.33
2022-12-23T06:46:59.167Z,52.30
2022-12-23T06:47:59.093Z,52.31
2022-12-23T06:48:59.117Z,52.37
2022-12-23T06:49:59.036Z,52.34
2022-12-23T06:50:59.047Z,52.29
2022-12-23T06:51:59.011Z,52.30
2022-12-23T06:52:59.025Z,52.27
2022-12-23T06:53:58.972Z,52.32
2022-12-23T06:54:59.018Z,52.31
2022-12-23T06:55:58.929Z,52.32
2022-12-23T06:56:58.966Z,52.31
2022-12-23T06:57:58.928Z,52.33
2022-12-23T06:58:58.944Z,52.37
2022-12-23T06:59:58.861Z,52.32
2022-12-23T07:00:58.912Z,52.37
2022-12-23T07:01:59.017Z,52.38
2022-12-23T07:02:58.998Z,52.39
2022-12-23T07:03:58.814Z,52.39
2022-12-23T07:04:58.846Z,52.44
2022-12-23T07:05:58.794Z,52.49
2022-12-23T07:06:58.827Z,52.45
2022-12-23T07:07:58.778Z,52.48
2022-12-23T07:08:58.780Z,52.46
2022-12-23T07:09:58.752Z,52.43
2022-12-23T07:10:58.784Z,52.42
2022-12-23T07:11:58.703Z,52.37
2022-12-23T07:12:58.743Z,52.27
2022-12-23T07:13:58.708Z,52.31
2022-12-23T07:14:58.710Z,52.28
2022-12-23T07:15:58.664Z,52.29
2022-12-23T07:16:58.722Z,52.26
2022-12-23T07:17:58.651Z,52.21
2022-12-23T07:18:58.675Z,52.19
2022-12-23T07:19:58.618Z,52.18
2022-12-23T07:20:58.630Z,52.16
2022-12-23T07:21:58.595Z,52.18
2022-12-23T07:22:58.615Z,52.14
2022-12-23T07:23:58.573Z,52.10
2022-12-23T07:24:58.569Z,52.13
2022-12-23T07:25:58.511Z,52.06
2022-12-23T07:26:58.514Z,52.09
2022-12-23T07:27:58.487Z,52.05
2022-12-23T07:28:58.488Z,52.04
2022-12-23T07:29:58.409Z,52.03
2022-12-23T07:30:58.484Z,52.00
2022-12-23T07:31:58.480Z,51.97
2022-12-23T07:32:58.431Z,51.99
2022-12-23T07:33:58.364Z,51.95
2022-12-23T07:34:58.383Z,51.98
2022-12-23T07:35:58.345Z,51.93
2022-12-23T07:36:58.355Z,51.96
2022-12-23T07:37:58.272Z,51.94
2022-12-23T07:38:58.283Z,51.96
2022-12-23T07:40:00.049Z,51.93
2022-12-23T07:40:59.248Z,51.94
2022-12-23T07:42:24.908Z,51.93
2022-12-23T07:42:59.199Z,51.94
2022-12-23T07:43:58.184Z,51.96
2022-12-23T07:44:58.171Z,51.96
2022-12-23T07:46:00.603Z,51.95
2022-12-23T07:46:58.131Z,51.97
2022-12-23T07:47:58.099Z,51.93
2022-12-23T07:48:58.100Z,51.97
2022-12-23T07:49:58.078Z,51.99
2022-12-23T07:50:58.076Z,51.98
2022-12-23T07:51:58.040Z,51.95
2022-12-23T07:52:58.041Z,52.00
2022-12-23T07:53:57.996Z,52.01
2022-12-23T07:54:58.028Z,51.95
2022-12-23T07:55:57.957Z,51.95
2022-12-23T07:56:57.988Z,51.95
2022-12-23T07:57:57.955Z,51.94
2022-12-23T07:58:57.972Z,51.94
2022-12-23T07:59:58.000Z,51.94
2022-12-23T08:00:58.049Z,51.90
2022-12-23T08:01:58.051Z,51.92
2022-12-23T08:02:58.212Z,51.87
2022-12-23T08:03:57.957Z,51.88
2022-12-23T08:04:57.991Z,51.88
2022-12-23T08:05:57.914Z,51.82
2022-12-23T08:06:57.932Z,51.85
2022-12-23T08:07:57.859Z,51.82
2022-12-23T08:08:57.893Z,51.79
2022-12-23T08:09:57.842Z,51.78
2022-12-23T08:10:57.879Z,51.76
2022-12-23T08:11:57.829Z,51.79
2022-12-23T08:12:57.820Z,51.79
2022-12-23T08:13:57.790Z,51.77
2022-12-23T08:14:57.805Z,51.74
2022-12-23T08:15:57.738Z,51.75
2022-12-23T08:16:57.800Z,51.67
2022-12-23T08:17:57.694Z,51.68
2022-12-23T08:18:57.732Z,51.65
2022-12-23T08:19:57.659Z,51.66
2022-12-23T08:20:57.695Z,51.66
2022-12-23T08:21:57.613Z,51.64
2022-12-23T08:22:57.639Z,51.56
2022-12-23T08:23:57.579Z,51.57
2022-12-23T08:24:57.606Z,51.64
2022-12-23T08:25:57.579Z,51.68
2022-12-23T08:26:57.609Z,51.66
2022-12-23T08:27:57.547Z,51.70
2022-12-23T08:28:57.583Z,51.63
2022-12-23T08:29:57.517Z,51.64
2022-12-23T08:30:57.564Z,51.65
2022-12-23T08:31:57.514Z,51.64
2022-12-23T08:32:57.551Z,51.68
2022-12-23T08:33:57.488Z,51.69
2022-12-23T08:34:57.513Z,51.66
2022-12-23T08:35:57.468Z,51.64
2022-12-23T08:36:57.490Z,51.65
2022-12-23T08:37:57.437Z,51.65
2022-12-23T08:38:57.454Z,51.69
2022-12-23T08:39:57.424Z,51.71
2022-12-23T08:40:57.456Z,51.72
2022-12-23T08:41:57.363Z,51.72
2022-12-23T08:42:57.414Z,51.73
2022-12-23T08:43:57.356Z,51.76
2022-12-23T08:44:57.389Z,51.79
2022-12-23T08:45:57.345Z,51.85
2022-12-23T08:46:57.360Z,51.82
2022-12-23T08:47:57.310Z,51.89
2022-12-23T08:48:57.369Z,51.89
2022-12-23T08:49:57.265Z,52.00
2022-12-23T08:50:57.317Z,51.95
2022-12-23T08:51:57.284Z,52.12
2022-12-23T08:52:57.305Z,52.06
2022-12-23T08:54:00.557Z,52.11
2022-12-23T08:54:57.252Z,52.06
2022-12-23T08:55:57.228Z,52.05
2022-12-23T08:56:57.303Z,52.19
2022-12-23T08:57:57.192Z,52.33
2022-12-23T08:58:57.240Z,52.34
2022-12-23T08:59:57.197Z,52.28
2022-12-23T09:00:57.215Z,52.15
2022-12-23T09:01:57.288Z,52.21
2022-12-23T09:02:57.282Z,52.41
2022-12-23T09:03:57.241Z,52.28
2022-12-23T09:04:57.205Z,52.43
2022-12-23T09:05:57.157Z,52.38
2022-12-23T09:06:57.149Z,52.40
2022-12-23T09:07:57.114Z,52.48
2022-12-23T09:08:57.143Z,52.52
2022-12-23T09:09:57.088Z,52.57
2022-12-23T09:10:57.117Z,52.48
2022-12-23T09:11:57.110Z,52.61
2022-12-23T09:12:58.244Z,52.47
2022-12-23T09:13:57.061Z,52.53
2022-12-23T09:14:57.067Z,52.41
2022-12-23T09:15:57.120Z,52.48
2022-12-23T09:16:57.062Z,52.48
2022-12-23T09:17:57.041Z,52.44
2022-12-23T09:18:57.038Z,52.39
2022-12-23T09:19:56.997Z,52.30
2022-12-23T09:20:57.012Z,52.47
2022-12-23T09:21:56.992Z,52.51
2022-12-23T09:22:56.980Z,52.54
2022-12-23T09:23:56.932Z,52.48
2022-12-23T09:25:03.087Z,52.53
2022-12-23T09:25:57.962Z,52.53
2022-12-23T09:26:56.882Z,52.54
2022-12-23T09:27:56.914Z,52.55
2022-12-23T09:28:56.859Z,52.60
2022-12-23T09:29:56.915Z,52.64
2022-12-23T09:30:56.845Z,52.53
2022-12-23T09:31:56.951Z,52.46
2022-12-23T09:32:56.806Z,52.48
2022-12-23T09:33:56.841Z,52.47
2022-12-23T09:34:56.790Z,52.40
2022-12-23T09:35:56.791Z,52.41
2022-12-23T09:36:56.766Z,52.48
2022-12-23T09:37:56.812Z,52.59
2022-12-23T09:38:56.763Z,52.57
2022-12-23T09:39:56.760Z,52.66
2022-12-23T09:40:56.717Z,52.66
2022-12-23T09:41:56.773Z,52.65
2022-12-23T09:42:56.687Z,52.71
2022-12-23T09:43:56.718Z,52.77
2022-12-23T09:44:56.656Z,52.75
2022-12-23T09:45:56.724Z,52.72
2022-12-23T09:46:56.709Z,52.72
2022-12-23T09:47:56.652Z,52.82
2022-12-23T09:48:56.611Z,52.85
2022-12-23T09:49:56.660Z,52.89
2022-12-23T09:50:56.592Z,52.87
2022-12-23T09:51:56.606Z,52.85
2022-12-23T09:52:56.581Z,52.92
2022-12-23T09:53:56.690Z,52.86
2022-12-23T09:54:56.568Z,52.93
2022-12-23T09:55:56.543Z,52.95
2022-12-23T09:56:56.714Z,52.98
2022-12-23T09:57:56.522Z,52.86
2022-12-23T09:58:56.471Z,52.87
2022-12-23T09:59:56.494Z,52.93
2022-12-23T10:00:57.994Z,52.94
2022-12-23T10:01:56.678Z,52.86
2022-12-23T10:02:56.739Z,52.80
2022-12-23T10:03:56.518Z,52.83
2022-12-23T10:04:56.434Z,52.81
2022-12-23T10:05:56.407Z,52.78
2022-12-23T10:07:02.508Z,52.86
2022-12-23T10:07:57.389Z,52.78
2022-12-23T10:08:56.360Z,52.88
2022-12-23T10:09:56.355Z,52.74
2022-12-23T10:10:56.329Z,52.82
2022-12-23T10:11:56.354Z,52.82
2022-12-23T10:12:56.305Z,52.77
2022-12-23T10:13:56.311Z,52.88
2022-12-23T10:14:56.292Z,52.92
2022-12-23T10:15:56.371Z,52.90
2022-12-23T10:16:56.269Z,52.93
2022-12-23T10:17:56.273Z,52.94
2022-12-23T10:18:56.188Z,52.92
2022-12-23T10:19:56.227Z,52.95
2022-12-23T10:20:56.165Z,52.99
2022-12-23T10:21:56.197Z,52.88
2022-12-23T10:22:56.147Z,53.00
2022-12-23T10:23:56.194Z,52.98
2022-12-23T10:24:56.121Z,52.99
2022-12-23T10:25:56.149Z,52.99
2022-12-23T10:26:56.101Z,52.98
2022-12-23T10:27:56.232Z,52.87
2022-12-23T10:28:56.153Z,52.93
2022-12-23T10:29:56.100Z,52.90
2022-12-23T10:31:24.000Z,53.13
2022-12-23T10:31:57.147Z,53.06
2022-12-23T10:32:56.066Z,52.58
2022-12-23T10:33:56.121Z,52.62
2022-12-23T10:34:56.029Z,52.81
2022-12-23T10:35:56.129Z,52.43
2022-12-23T10:36:56.057Z,49.93
2022-12-23T10:37:56.072Z,51.59
2022-12-23T10:38:56.020Z,50.34
2022-12-23T10:39:56.025Z,50.96
2022-12-23T10:40:55.984Z,51.59
2022-12-23T10:41:56.040Z,51.59
2022-12-23T10:42:55.989Z,50.65
2022-12-23T10:43:56.022Z,49.30
2022-12-23T10:44:55.978Z,50.82
2022-12-23T10:45:55.997Z,51.07
2022-12-23T10:46:56.035Z,50.72
2022-12-23T10:47:55.979Z,51.23
2022-12-23T10:48:55.919Z,51.14
2022-12-23T10:49:55.979Z,51.23
2022-12-23T10:50:55.923Z,51.71
2022-12-23T10:51:55.920Z,51.72
2022-12-23T10:52:55.891Z,51.61
2022-12-23T10:53:55.918Z,51.57
2022-12-23T10:54:55.888Z,51.26
2022-12-23T10:55:55.902Z,51.57
2022-12-23T10:56:55.860Z,51.24
2022-12-23T10:57:55.871Z,51.32
2022-12-23T10:58:55.845Z,51.51
2022-12-23T10:59:55.869Z,51.54
2022-12-23T11:00:55.910Z,51.61
2022-12-23T11:01:56.087Z,51.63
2022-12-23T11:02:55.993Z,51.66
2022-12-23T11:03:55.955Z,51.60
2022-12-23T11:04:55.796Z,51.66
2022-12-23T11:05:55.955Z,51.70
2022-12-23T11:07:11.080Z,51.66
2022-12-23T11:07:56.823Z,51.84
2022-12-23T11:08:55.783Z,51.63
2022-12-23T11:09:55.820Z,51.68
2022-12-23T11:10:55.735Z,51.64
2022-12-23T11:11:55.787Z,51.60
2022-12-23T11:12:55.749Z,51.78
2022-12-23T11:13:55.762Z,51.72
2022-12-23T11:14:55.730Z,51.72
2022-12-23T11:15:55.800Z,51.63
2022-12-23T11:16:55.780Z,51.69
2022-12-23T11:17:55.731Z,51.67
2022-12-23T11:18:55.688Z,51.74
2022-12-23T11:19:55.727Z,51.77
2022-12-23T11:20:55.681Z,51.73
2022-12-23T11:21:55.686Z,51.78
2022-12-23T11:22:55.624Z,51.79
2022-12-23T11:23:55.698Z,51.84
2022-12-23T11:24:55.633Z,52.00
2022-12-23T11:25:55.673Z,51.98
2022-12-23T11:26:55.621Z,52.07
2022-12-23T11:27:55.622Z,52.09
2022-12-23T11:28:55.596Z,52.23
2022-12-23T11:29:55.616Z,52.31
2022-12-23T11:30:56.892Z,52.36
2022-12-23T11:31:55.664Z,52.58
2022-12-23T11:32:55.553Z,52.57
2022-12-23T11:33:55.586Z,52.78
2022-12-23T11:34:55.603Z,53.01
2022-12-23T11:35:55.578Z,53.06
2022-12-23T11:36:58.677Z,53.11
2022-12-23T11:37:56.523Z,53.25
2022-12-23T11:38:55.481Z,53.66
2022-12-23T11:39:55.515Z,53.63
2022-12-23T11:40:55.459Z,53.58
2022-12-23T11:41:55.489Z,53.59
2022-12-23T11:42:55.525Z,53.51
2022-12-23T11:43:55.472Z,53.79
2022-12-23T11:44:55.411Z,53.92
2022-12-23T11:45:55.466Z,54.16
2022-12-23T11:46:55.414Z,53.79
2022-12-23T11:47:55.411Z,53.85
2022-12-23T11:48:55.403Z,54.03
2022-12-23T11:49:55.384Z,53.80
2022-12-23T11:50:55.451Z,53.84
2022-12-23T11:51:55.471Z,53.80
2022-12-23T11:52:55.380Z,53.73
2022-12-23T11:53:55.435Z,53.74
2022-12-23T11:54:55.352Z,53.73
2022-12-23T11:55:55.956Z,53.62
2022-12-23T11:56:56.636Z,53.80
2022-12-23T11:57:55.468Z,54.09
2022-12-23T11:58:55.592Z,53.72
2022-12-23T11:59:55.476Z,53.92
2022-12-23T12:00:56.221Z,53.73
2022-12-23T12:01:55.547Z,53.55
2022-12-23T12:02:55.667Z,53.61
2022-12-23T12:03:55.427Z,53.57
2022-12-23T12:04:55.525Z,53.56
2022-12-23T12:05:55.460Z,53.59
2022-12-23T12:06:56.810Z,53.59
2022-12-23T12:07:55.384Z,53.60
2022-12-23T12:08:55.423Z,53.63
2022-12-23T12:09:55.383Z,53.66
2022-12-23T12:10:55.435Z,53.65
2022-12-23T12:11:55.386Z,53.65
2022-12-23T12:12:55.386Z,53.70
2022-12-23T12:13:55.347Z,53.72
2022-12-23T12:14:55.405Z,53.80
2022-12-23T12:15:55.339Z,54.28
2022-12-23T12:16:55.321Z,54.04
2022-12-23T12:17:55.250Z,54.85
2022-12-23T12:18:56.026Z,54.28
2022-12-23T12:19:55.254Z,54.62
2022-12-23T12:20:55.400Z,54.90
2022-12-23T12:21:55.210Z,54.55
2022-12-23T12:22:55.235Z,54.33
2022-12-23T12:24:14.689Z,55.60
2022-12-23T12:24:56.227Z,54.78
2022-12-23T12:25:55.215Z,54.76
2022-12-23T12:26:55.210Z,54.77
2022-12-23T12:27:55.215Z,55.29
2022-12-23T12:28:55.198Z,54.92
2022-12-23T12:29:55.187Z,55.20
2022-12-23T12:30:55.274Z,55.03
2022-12-23T12:31:55.171Z,55.02
2022-12-23T12:32:55.193Z,55.11
2022-12-23T12:33:55.167Z,55.12
2022-12-23T12:34:55.186Z,54.50
2022-12-23T12:35:58.942Z,54.87
2022-12-23T12:36:56.261Z,54.06
2022-12-23T12:37:55.187Z,54.00
2022-12-23T12:38:55.151Z,54.23
2022-12-23T12:39:55.156Z,54.50
2022-12-23T12:40:55.163Z,54.60
2022-12-23T12:42:00.045Z,54.70
2022-12-23T12:42:56.158Z,54.66
2022-12-23T12:43:55.114Z,54.68
2022-12-23T12:44:55.151Z,54.74
2022-12-23T12:45:55.165Z,54.86
2022-12-23T12:46:55.149Z,54.83
2022-12-23T12:47:59.934Z,54.82
2022-12-23T12:48:56.125Z,54.86
2022-12-23T12:49:55.092Z,54.83
2022-12-23T12:50:55.107Z,54.80
2022-12-23T12:51:55.084Z,54.79